sensor_id;sensor_type;location;lat;lon;timestamp;pressure;altitude;pressure_sealevel;temperature;humidity
30875;BME280;17581;43.222;27.924;2024-01-15T00:02:16;100167.41;;;5.34;42.76
30875;BME280;17581;43.222;27.924;2024-01-15T00:04:42;100199.03;;;5.53;42.80
30875;BME280;17581;43.222;27.924;2024-01-15T00:07:08;100211.00;;;5.60;42.59
30875;BME280;17581;43.222;27.924;2024-01-15T00:09:34;100199.28;;;5.62;42.96
30875;BME280;17581;43.222;27.924;2024-01-15T00:12:01;100213.81;;;5.71;43.00
30875;BME280;17581;43.222;27.924;2024-01-15T00:14:27;100198.53;;;5.73;42.84
30875;BME280;17581;43.222;27.924;2024-01-15T00:16:53;100178.47;;;5.67;42.84
30875;BME280;17581;43.222;27.924;2024-01-15T00:19:21;100206.28;;;5.90;42.66
30875;BME280;17581;43.222;27.924;2024-01-15T00:21:47;100203.63;;;5.90;42.57
30875;BME280;17581;43.222;27.924;2024-01-15T00:24:12;100197.22;;;5.92;42.24
30875;BME280;17581;43.222;27.924;2024-01-15T00:26:38;100199.75;;;5.94;42.21
30875;BME280;17581;43.222;27.924;2024-01-15T00:29:04;100204.69;;;6.00;42.19
30875;BME280;17581;43.222;27.924;2024-01-15T00:31:29;100208.94;;;6.02;42.33
30875;BME280;17581;43.222;27.924;2024-01-15T00:33:55;100199.34;;;6.00;42.43
30875;BME280;17581;43.222;27.924;2024-01-15T00:36:21;100209.72;;;6.05;42.24
30875;BME280;17581;43.222;27.924;2024-01-15T00:38:47;100213.25;;;6.05;42.15
30875;BME280;17581;43.222;27.924;2024-01-15T00:41:13;100211.31;;;6.07;42.11
30875;BME280;17581;43.222;27.924;2024-01-15T00:43:39;100205.09;;;6.07;42.18
30875;BME280;17581;43.222;27.924;2024-01-15T00:46:05;100201.06;;;6.01;42.10
30875;BME280;17581;43.222;27.924;2024-01-15T00:48:31;100211.09;;;6.10;42.20
30875;BME280;17581;43.222;27.924;2024-01-15T00:50:56;100214.72;;;6.09;42.28
30875;BME280;17581;43.222;27.924;2024-01-15T00:53:22;100216.22;;;6.13;42.35
30875;BME280;17581;43.222;27.924;2024-01-15T00:55:48;100186.13;;;5.98;42.08
30875;BME280;17581;43.222;27.924;2024-01-15T00:58:13;100209.16;;;6.12;42.10
30875;BME280;17581;43.222;27.924;2024-01-15T01:00:39;100199.03;;;6.17;41.93
30875;BME280;17581;43.222;27.924;2024-01-15T01:03:04;100213.63;;;6.24;42.36
30875;BME280;17581;43.222;27.924;2024-01-15T01:05:30;100212.59;;;6.27;42.34
30875;BME280;17581;43.222;27.924;2024-01-15T01:07:55;100213.41;;;6.27;42.11
30875;BME280;17581;43.222;27.924;2024-01-15T01:10:21;100211.75;;;6.26;42.25
30875;BME280;17581;43.222;27.924;2024-01-15T01:12:47;100213.63;;;6.24;42.38
30875;BME280;17581;43.222;27.924;2024-01-15T01:15:12;100210.44;;;6.19;42.67
30875;BME280;17581;43.222;27.924;2024-01-15T01:17:38;100203.50;;;6.04;42.61
30875;BME280;17581;43.222;27.924;2024-01-15T01:20:04;100201.56;;;5.81;42.96
30875;BME280;17581;43.222;27.924;2024-01-15T01:22:31;100213.38;;;5.77;43.46
30875;BME280;17581;43.222;27.924;2024-01-15T01:24:57;100184.09;;;5.50;43.58
30875;BME280;17581;43.222;27.924;2024-01-15T01:27:22;100215.78;;;5.55;44.05
30875;BME280;17581;43.222;27.924;2024-01-15T01:29:48;100199.66;;;5.43;43.95
30875;BME280;17581;43.222;27.924;2024-01-15T01:32:13;100182.53;;;5.21;44.44
30875;BME280;17581;43.222;27.924;2024-01-15T01:34:42;100188.50;;;5.24;44.50
30875;BME280;17581;43.222;27.924;2024-01-15T01:37:08;100209.34;;;5.32;44.54
30875;BME280;17581;43.222;27.924;2024-01-15T01:39:34;100190.84;;;5.16;44.67
30875;BME280;17581;43.222;27.924;2024-01-15T01:41:59;100212.38;;;5.13;45.14
30875;BME280;17581;43.222;27.924;2024-01-15T01:44:25;100178.34;;;4.90;45.34
30875;BME280;17581;43.222;27.924;2024-01-15T01:46:50;100216.38;;;5.06;45.67
30875;BME280;17581;43.222;27.924;2024-01-15T01:49:16;100200.38;;;5.06;45.63
30875;BME280;17581;43.222;27.924;2024-01-15T01:51:42;100209.25;;;5.07;45.69
30875;BME280;17581;43.222;27.924;2024-01-15T01:54:08;100193.06;;;4.95;45.74
30875;BME280;17581;43.222;27.924;2024-01-15T01:56:34;100208.03;;;4.98;45.71
30875;BME280;17581;43.222;27.924;2024-01-15T01:59:01;100209.94;;;4.96;46.05
30875;BME280;17581;43.222;27.924;2024-01-15T02:01:29;100212.91;;;4.91;45.72
30875;BME280;17581;43.222;27.924;2024-01-15T02:03:54;100207.97;;;4.85;46.07
30875;BME280;17581;43.222;27.924;2024-01-15T02:06:23;100193.91;;;4.69;46.33
30875;BME280;17581;43.222;27.924;2024-01-15T02:08:48;100199.91;;;4.59;46.52
30875;BME280;17581;43.222;27.924;2024-01-15T02:11:14;100194.78;;;4.56;46.80
30875;BME280;17581;43.222;27.924;2024-01-15T02:13:39;100196.34;;;4.46;47.02
30875;BME280;17581;43.222;27.924;2024-01-15T02:16:05;100187.13;;;4.37;46.97
30875;BME280;17581;43.222;27.924;2024-01-15T02:18:42;100191.50;;;4.38;47.27
30875;BME280;17581;43.222;27.924;2024-01-15T02:21:09;100187.59;;;4.29;47.23
30875;BME280;17581;43.222;27.924;2024-01-15T02:23:35;100153.59;;;4.06;47.61
30875;BME280;17581;43.222;27.924;2024-01-15T02:26:01;100128.53;;;3.82;47.71
30875;BME280;17581;43.222;27.924;2024-01-15T02:28:26;100184.56;;;4.07;48.13
30875;BME280;17581;43.222;27.924;2024-01-15T02:30:52;100161.94;;;3.86;47.96
30875;BME280;17581;43.222;27.924;2024-01-15T02:33:17;100173.44;;;3.87;48.38
30875;BME280;17581;43.222;27.924;2024-01-15T02:35:43;100189.88;;;3.93;48.92
30875;BME280;17581;43.222;27.924;2024-01-15T02:38:09;100194.41;;;3.77;48.82
30875;BME280;17581;43.222;27.924;2024-01-15T02:40:34;100164.38;;;3.61;49.06
30875;BME280;17581;43.222;27.924;2024-01-15T02:43:00;100190.69;;;3.65;49.19
30875;BME280;17581;43.222;27.924;2024-01-15T02:45:26;100189.75;;;3.66;49.76
30875;BME280;17581;43.222;27.924;2024-01-15T02:47:52;100181.28;;;3.60;49.87
30875;BME280;17581;43.222;27.924;2024-01-15T02:50:17;100190.38;;;3.56;49.72
30875;BME280;17581;43.222;27.924;2024-01-15T02:52:43;100187.53;;;3.59;49.99
30875;BME280;17581;43.222;27.924;2024-01-15T02:55:09;100160.06;;;3.44;49.99
30875;BME280;17581;43.222;27.924;2024-01-15T02:57:34;100190.38;;;3.56;49.61
30875;BME280;17581;43.222;27.924;2024-01-15T03:00:00;100191.13;;;3.58;50.09
30875;BME280;17581;43.222;27.924;2024-01-15T03:02:25;100182.38;;;3.42;50.23
30875;BME280;17581;43.222;27.924;2024-01-15T03:04:51;100193.50;;;3.48;49.97
30875;BME280;17581;43.222;27.924;2024-01-15T03:07:17;100193.50;;;3.48;49.97
30875;BME280;17581;43.222;27.924;2024-01-15T03:09:42;100182.56;;;3.39;50.44
30875;BME280;17581;43.222;27.924;2024-01-15T03:12:08;100171.78;;;3.26;50.37
30875;BME280;17581;43.222;27.924;2024-01-15T03:14:35;100193.94;;;3.41;50.15
30875;BME280;17581;43.222;27.924;2024-01-15T03:17:01;100169.41;;;3.21;50.27
30875;BME280;17581;43.222;27.924;2024-01-15T03:19:26;100195.06;;;3.37;50.39
30875;BME280;17581;43.222;27.924;2024-01-15T03:21:52;100157.06;;;3.20;50.19
30875;BME280;17581;43.222;27.924;2024-01-15T03:24:18;100193.44;;;3.34;50.34
30875;BME280;17581;43.222;27.924;2024-01-15T03:26:43;100178.19;;;3.08;50.49
30875;BME280;17581;43.222;27.924;2024-01-15T03:29:09;100182.47;;;3.10;50.50
30875;BME280;17581;43.222;27.924;2024-01-15T03:31:34;100200.81;;;3.15;50.62
30875;BME280;17581;43.222;27.924;2024-01-15T03:34:00;100196.16;;;3.18;50.78
30875;BME280;17581;43.222;27.924;2024-01-15T03:36:26;100196.44;;;3.14;50.73
30875;BME280;17581;43.222;27.924;2024-01-15T03:38:51;100198.03;;;3.16;50.74
30875;BME280;17581;43.222;27.924;2024-01-15T03:41:17;100186.06;;;3.09;50.73
30875;BME280;17581;43.222;27.924;2024-01-15T03:43:42;100189.31;;;3.14;50.88
30875;BME280;17581;43.222;27.924;2024-01-15T03:46:08;100197.69;;;3.22;50.66
30875;BME280;17581;43.222;27.924;2024-01-15T03:48:33;100189.13;;;3.17;50.48
30875;BME280;17581;43.222;27.924;2024-01-15T03:50:59;100192.66;;;3.18;50.33
30875;BME280;17581;43.222;27.924;2024-01-15T03:53:25;100186.22;;;3.06;50.86
30875;BME280;17581;43.222;27.924;2024-01-15T03:55:50;100153.28;;;2.79;50.95
30875;BME280;17581;43.222;27.924;2024-01-15T03:58:16;100189.22;;;3.00;51.39
30875;BME280;17581;43.222;27.924;2024-01-15T04:00:42;100207.47;;;3.06;51.07
30875;BME280;17581;43.222;27.924;2024-01-15T04:03:08;100168.09;;;2.83;51.25
30875;BME280;17581;43.222;27.924;2024-01-15T04:05:33;100198.75;;;3.04;51.10
30875;BME280;17581;43.222;27.924;2024-01-15T04:07:59;100194.47;;;3.02;51.05
30875;BME280;17581;43.222;27.924;2024-01-15T04:10:25;100196.78;;;3.08;51.03
30875;BME280;17581;43.222;27.924;2024-01-15T04:12:50;100202.44;;;3.17;51.25
30875;BME280;17581;43.222;27.924;2024-01-15T04:15:16;100189.91;;;3.19;50.99
30875;BME280;17581;43.222;27.924;2024-01-15T04:17:41;100210.41;;;3.17;50.76
30875;BME280;17581;43.222;27.924;2024-01-15T04:20:07;100190.06;;;3.16;50.67
30875;BME280;17581;43.222;27.924;2024-01-15T04:22:34;100203.00;;;3.22;51.08
30875;BME280;17581;43.222;27.924;2024-01-15T04:25:03;100204.13;;;3.18;50.54
30875;BME280;17581;43.222;27.924;2024-01-15T04:27:29;100207.75;;;3.17;50.68
30875;BME280;17581;43.222;27.924;2024-01-15T04:29:54;100203.22;;;2.88;51.53
30875;BME280;17581;43.222;27.924;2024-01-15T04:32:20;100193.91;;;2.81;51.82
30875;BME280;17581;43.222;27.924;2024-01-15T04:34:45;100201.94;;;2.80;51.63
30875;BME280;17581;43.222;27.924;2024-01-15T04:37:11;100205.63;;;2.77;52.17
30875;BME280;17581;43.222;27.924;2024-01-15T04:39:36;100203.91;;;2.76;51.77
30875;BME280;17581;43.222;27.924;2024-01-15T04:42:02;100185.09;;;2.65;51.78
30875;BME280;17581;43.222;27.924;2024-01-15T04:44:28;100207.53;;;2.75;51.76
30875;BME280;17581;43.222;27.924;2024-01-15T04:46:54;100209.22;;;2.76;51.76
30875;BME280;17581;43.222;27.924;2024-01-15T04:49:19;100196.38;;;2.84;51.74
30875;BME280;17581;43.222;27.924;2024-01-15T04:51:45;100193.13;;;2.79;51.95
30875;BME280;17581;43.222;27.924;2024-01-15T04:54:10;100208.19;;;2.94;52.15
30875;BME280;17581;43.222;27.924;2024-01-15T04:56:36;100195.50;;;2.99;51.84
30875;BME280;17581;43.222;27.924;2024-01-15T04:59:02;100164.81;;;2.94;51.76
30875;BME280;17581;43.222;27.924;2024-01-15T05:01:31;100161.91;;;2.98;51.60
30875;BME280;17581;43.222;27.924;2024-01-15T05:03:57;100194.09;;;3.23;51.69
30875;BME280;17581;43.222;27.924;2024-01-15T05:06:23;100190.91;;;3.33;51.27
30875;BME280;17581;43.222;27.924;2024-01-15T05:08:48;100197.66;;;3.38;51.48
30875;BME280;17581;43.222;27.924;2024-01-15T05:11:14;100200.03;;;3.43;51.55
30875;BME280;17581;43.222;27.924;2024-01-15T05:13:40;100182.19;;;3.45;51.80
30875;BME280;17581;43.222;27.924;2024-01-15T05:16:05;100182.50;;;3.54;51.37
30875;BME280;17581;43.222;27.924;2024-01-15T05:18:33;100194.59;;;3.74;51.07
30875;BME280;17581;43.222;27.924;2024-01-15T05:20:59;100195.38;;;3.76;50.69
30875;BME280;17581;43.222;27.924;2024-01-15T05:23:24;100202.81;;;3.85;50.86
30875;BME280;17581;43.222;27.924;2024-01-15T05:25:50;100195.38;;;3.90;50.67
30875;BME280;17581;43.222;27.924;2024-01-15T05:28:15;100203.75;;;3.98;50.76
30875;BME280;17581;43.222;27.924;2024-01-15T05:30:41;100178.56;;;3.90;50.55
30875;BME280;17581;43.222;27.924;2024-01-15T05:33:07;100192.53;;;3.93;50.47
30875;BME280;17581;43.222;27.924;2024-01-15T05:35:33;100163.84;;;3.84;50.56
30875;BME280;17581;43.222;27.924;2024-01-15T05:37:58;100193.13;;;4.12;50.87
30875;BME280;17581;43.222;27.924;2024-01-15T05:40:24;100185.16;;;4.12;50.75
30875;BME280;17581;43.222;27.924;2024-01-15T05:42:49;100193.31;;;4.23;50.99
30875;BME280;17581;43.222;27.924;2024-01-15T05:45:15;100196.34;;;4.31;50.65
30875;BME280;17581;43.222;27.924;2024-01-15T05:47:41;100162.13;;;4.11;51.05
30875;BME280;17581;43.222;27.924;2024-01-15T05:50:07;100190.06;;;4.32;50.70
30875;BME280;17581;43.222;27.924;2024-01-15T05:52:32;100171.75;;;4.28;50.86
30875;BME280;17581;43.222;27.924;2024-01-15T05:54:58;100203.66;;;4.42;51.00
30875;BME280;17581;43.222;27.924;2024-01-15T05:57:23;100193.56;;;4.47;50.83
30875;BME280;17581;43.222;27.924;2024-01-15T05:59:49;100185.09;;;4.40;50.94
30875;BME280;17581;43.222;27.924;2024-01-15T06:02:15;100198.34;;;4.42;51.15
30875;BME280;17581;43.222;27.924;2024-01-15T06:04:40;100192.63;;;4.48;50.98
30875;BME280;17581;43.222;27.924;2024-01-15T06:07:06;100160.44;;;4.24;50.85
30875;BME280;17581;43.222;27.924;2024-01-15T06:09:31;100187.97;;;4.37;51.44
30875;BME280;17581;43.222;27.924;2024-01-15T06:11:57;100188.06;;;4.36;50.95
30875;BME280;17581;43.222;27.924;2024-01-15T06:14:22;100187.13;;;4.37;51.13
30875;BME280;17581;43.222;27.924;2024-01-15T06:16:48;100154.72;;;4.30;51.54
30875;BME280;17581;43.222;27.924;2024-01-15T06:19:14;100179.19;;;4.50;51.84
30875;BME280;17581;43.222;27.924;2024-01-15T06:21:40;100183.53;;;4.65;51.45
30875;BME280;17581;43.222;27.924;2024-01-15T06:24:05;100163.69;;;4.56;51.33
30875;BME280;17581;43.222;27.924;2024-01-15T06:26:31;100186.78;;;4.70;51.21
30875;BME280;17581;43.222;27.924;2024-01-15T06:28:56;100169.09;;;4.69;51.36
30875;BME280;17581;43.222;27.924;2024-01-15T06:31:22;100153.97;;;4.69;50.91
30875;BME280;17581;43.222;27.924;2024-01-15T06:33:47;100170.00;;;4.82;50.64
30875;BME280;17581;43.222;27.924;2024-01-15T06:36:14;100155.75;;;4.83;50.45
30875;BME280;17581;43.222;27.924;2024-01-15T06:38:42;100144.06;;;4.71;49.99
30875;BME280;17581;43.222;27.924;2024-01-15T06:41:08;100164.28;;;4.88;50.63
30875;BME280;17581;43.222;27.924;2024-01-15T06:43:33;100156.84;;;4.93;49.54
30875;BME280;17581;43.222;27.924;2024-01-15T06:45:59;100162.41;;;5.03;49.51
30875;BME280;17581;43.222;27.924;2024-01-15T06:48:25;100153.53;;;5.16;49.21
30875;BME280;17581;43.222;27.924;2024-01-15T06:50:50;100142.44;;;5.22;49.39
30875;BME280;17581;43.222;27.924;2024-01-15T06:53:16;100136.94;;;5.38;48.85
30875;BME280;17581;43.222;27.924;2024-01-15T06:55:41;100139.19;;;5.57;48.42
30875;BME280;17581;43.222;27.924;2024-01-15T06:58:07;100130.53;;;5.66;47.68
30875;BME280;17581;43.222;27.924;2024-01-15T07:00:32;100087.88;;;5.53;47.81
30875;BME280;17581;43.222;27.924;2024-01-15T07:02:58;100137.72;;;5.90;47.10
30875;BME280;17581;43.222;27.924;2024-01-15T07:05:24;100140.81;;;6.10;46.84
30875;BME280;17581;43.222;27.924;2024-01-15T07:07:49;100144.44;;;6.21;46.58
30875;BME280;17581;43.222;27.924;2024-01-15T07:10:15;100131.41;;;6.29;46.66
30875;BME280;17581;43.222;27.924;2024-01-15T07:12:44;100143.31;;;6.49;46.06
30875;BME280;17581;43.222;27.924;2024-01-15T07:15:10;100140.72;;;6.60;45.61
30875;BME280;17581;43.222;27.924;2024-01-15T07:17:35;100117.47;;;6.73;44.82
30875;BME280;17581;43.222;27.924;2024-01-15T07:20:05;100141.47;;;6.86;44.91
30875;BME280;17581;43.222;27.924;2024-01-15T07:22:33;100132.56;;;6.98;44.88
30875;BME280;17581;43.222;27.924;2024-01-15T07:24:59;100127.97;;;7.00;44.29
30875;BME280;17581;43.222;27.924;2024-01-15T07:27:24;100128.00;;;7.11;44.78
30875;BME280;17581;43.222;27.924;2024-01-15T07:29:50;100131.25;;;7.27;44.65
30875;BME280;17581;43.222;27.924;2024-01-15T07:32:15;100123.72;;;7.32;44.27
30875;BME280;17581;43.222;27.924;2024-01-15T07:34:41;100090.38;;;7.25;43.88
30875;BME280;17581;43.222;27.924;2024-01-15T07:37:07;100116.94;;;7.50;43.61
30875;BME280;17581;43.222;27.924;2024-01-15T07:39:33;100109.16;;;7.58;42.94
30875;BME280;17581;43.222;27.924;2024-01-15T07:41:58;100112.13;;;7.66;43.79
30875;BME280;17581;43.222;27.924;2024-01-15T07:44:24;100125.75;;;7.75;44.21
30875;BME280;17581;43.222;27.924;2024-01-15T07:46:49;100123.34;;;7.83;44.49
30875;BME280;17581;43.222;27.924;2024-01-15T07:49:15;100119.44;;;7.87;43.75
30875;BME280;17581;43.222;27.924;2024-01-15T07:51:42;100132.25;;;7.94;43.86
30875;BME280;17581;43.222;27.924;2024-01-15T07:54:09;100123.34;;;8.05;44.57
30875;BME280;17581;43.222;27.924;2024-01-15T07:56:53;100087.19;;;7.99;44.00
30875;BME280;17581;43.222;27.924;2024-01-15T07:59:18;100109.75;;;8.19;44.28
30875;BME280;17581;43.222;27.924;2024-01-15T08:01:44;100115.44;;;8.26;44.07
30875;BME280;17581;43.222;27.924;2024-01-15T08:04:09;100080.16;;;8.09;43.87
30875;BME280;17581;43.222;27.924;2024-01-15T08:06:38;100125.09;;;8.39;43.64
30875;BME280;17581;43.222;27.924;2024-01-15T08:09:03;100093.31;;;8.35;43.44
30875;BME280;17581;43.222;27.924;2024-01-15T08:11:29;100101.44;;;8.44;43.66
30875;BME280;17581;43.222;27.924;2024-01-15T08:13:55;100086.13;;;8.46;42.86
30875;BME280;17581;43.222;27.924;2024-01-15T08:16:21;100126.25;;;8.80;42.83
30875;BME280;17581;43.222;27.924;2024-01-15T08:18:47;100084.47;;;8.66;42.44
30875;BME280;17581;43.222;27.924;2024-01-15T08:21:12;100089.56;;;8.80;41.33
30875;BME280;17581;43.222;27.924;2024-01-15T08:23:38;100110.91;;;9.02;42.95
30875;BME280;17581;43.222;27.924;2024-01-15T08:26:04;100089.66;;;8.90;42.78
30875;BME280;17581;43.222;27.924;2024-01-15T08:28:30;100106.31;;;9.04;43.00
30875;BME280;17581;43.222;27.924;2024-01-15T08:30:56;100112.47;;;9.16;42.98
30875;BME280;17581;43.222;27.924;2024-01-15T08:33:21;100106.31;;;9.25;42.82
30875;BME280;17581;43.222;27.924;2024-01-15T08:35:47;100087.66;;;9.23;43.11
30875;BME280;17581;43.222;27.924;2024-01-15T08:38:13;100101.63;;;9.38;42.25
30875;BME280;17581;43.222;27.924;2024-01-15T08:40:39;100114.13;;;9.49;42.39
30875;BME280;17581;43.222;27.924;2024-01-15T08:43:04;100094.56;;;9.37;42.21
30875;BME280;17581;43.222;27.924;2024-01-15T08:45:32;100111.59;;;9.47;42.23
30875;BME280;17581;43.222;27.924;2024-01-15T08:47:57;100113.00;;;9.30;41.05
30875;BME280;17581;43.222;27.924;2024-01-15T08:50:23;100109.00;;;9.25;41.07
30875;BME280;17581;43.222;27.924;2024-01-15T08:52:48;100104.25;;;9.28;41.46
30875;BME280;17581;43.222;27.924;2024-01-15T08:55:14;100109.88;;;9.46;41.59
30875;BME280;17581;43.222;27.924;2024-01-15T08:57:39;100106.84;;;9.60;42.37
30875;BME280;17581;43.222;27.924;2024-01-15T09:00:05;100097.63;;;9.74;42.51
30875;BME280;17581;43.222;27.924;2024-01-15T09:02:34;100095.00;;;9.83;43.54
30875;BME280;17581;43.222;27.924;2024-01-15T09:05:00;100075.16;;;9.75;44.61
30875;BME280;17581;43.222;27.924;2024-01-15T09:07:25;100071.38;;;9.77;44.64
30875;BME280;17581;43.222;27.924;2024-01-15T09:09:52;100061.00;;;9.94;44.93
30875;BME280;17581;43.222;27.924;2024-01-15T09:12:18;100058.91;;;10.07;44.24
30875;BME280;17581;43.222;27.924;2024-01-15T09:14:46;100034.19;;;10.13;44.31
30875;BME280;17581;43.222;27.924;2024-01-15T09:17:12;100052.25;;;10.41;44.09
30875;BME280;17581;43.222;27.924;2024-01-15T09:19:37;100038.28;;;10.57;43.80
30875;BME280;17581;43.222;27.924;2024-01-15T09:22:05;100026.53;;;10.67;43.34
30875;BME280;17581;43.222;27.924;2024-01-15T09:24:30;100038.59;;;10.92;42.65
30875;BME280;17581;43.222;27.924;2024-01-15T09:26:56;100018.38;;;10.98;41.90
30875;BME280;17581;43.222;27.924;2024-01-15T09:29:21;100032.66;;;11.17;41.73
30875;BME280;17581;43.222;27.924;2024-01-15T09:31:49;100022.72;;;11.18;40.67
30875;BME280;17581;43.222;27.924;2024-01-15T09:34:15;100026.81;;;11.31;40.01
30875;BME280;17581;43.222;27.924;2024-01-15T09:36:41;100021.59;;;11.30;39.48
30875;BME280;17581;43.222;27.924;2024-01-15T09:39:08;100022.44;;;11.40;39.11
30875;BME280;17581;43.222;27.924;2024-01-15T09:41:37;100010.81;;;11.30;38.21
30875;BME280;17581;43.222;27.924;2024-01-15T09:44:03;99999.66;;;11.25;37.75
30875;BME280;17581;43.222;27.924;2024-01-15T09:46:31;99984.19;;;11.27;37.60
30875;BME280;17581;43.222;27.924;2024-01-15T09:48:58;99995.50;;;11.40;36.97
30875;BME280;17581;43.222;27.924;2024-01-15T09:51:24;100003.38;;;11.61;37.44
30875;BME280;17581;43.222;27.924;2024-01-15T09:53:50;99985.25;;;11.53;36.94
30875;BME280;17581;43.222;27.924;2024-01-15T09:56:17;99989.91;;;11.61;36.34
30875;BME280;17581;43.222;27.924;2024-01-15T09:58:42;99986.34;;;11.60;36.74
30875;BME280;17581;43.222;27.924;2024-01-15T10:01:08;100000.69;;;11.70;36.64
30875;BME280;17581;43.222;27.924;2024-01-15T10:03:35;99990.88;;;11.69;36.94
30875;BME280;17581;43.222;27.924;2024-01-15T10:06:01;99984.22;;;11.73;37.28
30875;BME280;17581;43.222;27.924;2024-01-15T10:08:28;99985.78;;;11.76;36.37
30875;BME280;17581;43.222;27.924;2024-01-15T10:10:53;99983.50;;;11.71;37.06
30875;BME280;17581;43.222;27.924;2024-01-15T10:13:19;99980.69;;;11.63;37.05
30875;BME280;17581;43.222;27.924;2024-01-15T10:15:46;99941.25;;;11.62;37.52
30875;BME280;17581;43.222;27.924;2024-01-15T10:18:15;99959.44;;;11.70;37.71
30875;BME280;17581;43.222;27.924;2024-01-15T10:20:40;99965.75;;;11.78;38.19
30875;BME280;17581;43.222;27.924;2024-01-15T10:23:06;99936.88;;;11.71;38.46
30875;BME280;17581;43.222;27.924;2024-01-15T10:25:31;99914.59;;;11.69;38.22
30875;BME280;17581;43.222;27.924;2024-01-15T10:28:02;99944.72;;;11.91;38.42
30875;BME280;17581;43.222;27.924;2024-01-15T10:30:28;99937.88;;;11.97;38.43
30875;BME280;17581;43.222;27.924;2024-01-15T10:33:01;99930.25;;;11.92;38.68
30875;BME280;17581;43.222;27.924;2024-01-15T10:35:28;99929.53;;;11.90;39.38
30875;BME280;17581;43.222;27.924;2024-01-15T10:37:54;99922.63;;;12.06;39.17
30875;BME280;17581;43.222;27.924;2024-01-15T10:40:20;99913.75;;;12.23;38.95
30875;BME280;17581;43.222;27.924;2024-01-15T10:42:45;99899.56;;;12.21;39.32
30875;BME280;17581;43.222;27.924;2024-01-15T10:45:16;99877.84;;;12.05;39.42
30875;BME280;17581;43.222;27.924;2024-01-15T10:47:42;99865.53;;;12.20;39.21
30875;BME280;17581;43.222;27.924;2024-01-15T10:50:09;99886.19;;;12.29;39.72
30875;BME280;17581;43.222;27.924;2024-01-15T10:52:39;99883.47;;;12.29;39.80
30875;BME280;17581;43.222;27.924;2024-01-15T10:55:11;99873.19;;;12.32;40.62
30875;BME280;17581;43.222;27.924;2024-01-15T10:57:37;99864.50;;;12.21;40.61
30875;BME280;17581;43.222;27.924;2024-01-15T11:00:04;99853.34;;;12.16;41.00
30875;BME280;17581;43.222;27.924;2024-01-15T11:02:36;99823.63;;;12.08;41.46
30875;BME280;17581;43.222;27.924;2024-01-15T11:05:02;99859.34;;;12.10;41.70
30875;BME280;17581;43.222;27.924;2024-01-15T11:07:30;99832.63;;;11.98;42.03
30875;BME280;17581;43.222;27.924;2024-01-15T11:09:56;99846.63;;;12.02;42.30
30875;BME280;17581;43.222;27.924;2024-01-15T11:12:24;99846.88;;;12.09;42.30
30875;BME280;17581;43.222;27.924;2024-01-15T11:14:50;99846.56;;;12.12;42.18
30875;BME280;17581;43.222;27.924;2024-01-15T11:17:17;99828.16;;;12.07;42.28
30875;BME280;17581;43.222;27.924;2024-01-15T11:19:44;99841.09;;;12.04;42.38
30875;BME280;17581;43.222;27.924;2024-01-15T11:24:57;99812.06;;;11.53;43.23
30875;BME280;17581;43.222;27.924;2024-01-15T11:27:47;99839.22;;;11.59;43.94
30875;BME280;17581;43.222;27.924;2024-01-15T11:30:13;99840.84;;;11.52;44.15
30875;BME280;17581;43.222;27.924;2024-01-15T11:32:40;99823.88;;;11.42;44.45
30875;BME280;17581;43.222;27.924;2024-01-15T11:35:13;99816.59;;;11.52;44.60
30875;BME280;17581;43.222;27.924;2024-01-15T11:40:21;99827.28;;;11.71;44.23
30875;BME280;17581;43.222;27.924;2024-01-15T11:42:47;99816.78;;;11.68;44.39
30875;BME280;17581;43.222;27.924;2024-01-15T11:45:15;99811.91;;;11.81;44.51
30875;BME280;17581;43.222;27.924;2024-01-15T11:48:17;99819.22;;;11.89;43.85
30875;BME280;17581;43.222;27.924;2024-01-15T11:50:47;99816.16;;;12.02;46.03
30875;BME280;17581;43.222;27.924;2024-01-15T11:53:32;99816.06;;;11.93;51.51
30875;BME280;17581;43.222;27.924;2024-01-15T11:56:02;99804.69;;;11.55;53.78
30875;BME280;17581;43.222;27.924;2024-01-15T11:58:28;99810.97;;;11.45;53.74
30875;BME280;17581;43.222;27.924;2024-01-15T12:00:54;99819.09;;;11.36;51.29
30875;BME280;17581;43.222;27.924;2024-01-15T12:03:23;99798.38;;;11.19;47.61
30875;BME280;17581;43.222;27.924;2024-01-15T12:05:50;99791.88;;;11.12;47.17
30875;BME280;17581;43.222;27.924;2024-01-15T12:08:24;99795.91;;;11.25;47.07
30875;BME280;17581;43.222;27.924;2024-01-15T12:10:50;99788.69;;;11.26;47.30
30875;BME280;17581;43.222;27.924;2024-01-15T12:13:16;99774.63;;;11.32;47.23
30875;BME280;17581;43.222;27.924;2024-01-15T12:15:44;99784.16;;;11.26;47.64
30875;BME280;17581;43.222;27.924;2024-01-15T12:18:12;99787.31;;;11.22;47.95
30875;BME280;17581;43.222;27.924;2024-01-15T12:20:39;99780.13;;;11.13;47.89
30875;BME280;17581;43.222;27.924;2024-01-15T12:23:05;99749.72;;;11.03;48.32
30875;BME280;17581;43.222;27.924;2024-01-15T12:25:33;99748.81;;;11.12;48.13
30875;BME280;17581;43.222;27.924;2024-01-15T12:28:00;99773.88;;;11.39;47.88
30875;BME280;17581;43.222;27.924;2024-01-15T12:30:27;99772.13;;;11.48;47.72
30875;BME280;17581;43.222;27.924;2024-01-15T12:32:54;99766.34;;;11.43;47.70
30875;BME280;17581;43.222;27.924;2024-01-15T12:35:20;99740.53;;;11.23;48.12
30875;BME280;17581;43.222;27.924;2024-01-15T12:37:47;99753.38;;;11.29;48.46
30875;BME280;17581;43.222;27.924;2024-01-15T12:40:13;99703.13;;;11.02;47.96
30875;BME280;17581;43.222;27.924;2024-01-15T12:42:40;99751.28;;;11.23;48.81
30875;BME280;17581;43.222;27.924;2024-01-15T12:45:06;99723.09;;;11.27;48.98
30875;BME280;17581;43.222;27.924;2024-01-15T12:47:32;99693.00;;;11.14;48.90
30875;BME280;17581;43.222;27.924;2024-01-15T12:49:58;99744.09;;;11.41;48.81
30875;BME280;17581;43.222;27.924;2024-01-15T12:52:27;99738.09;;;11.47;48.76